createdAt,value
2023-05-10T00:02:28.845Z,12.13
2023-05-10T00:04:59.026Z,9.68
2023-05-10T00:07:27.829Z,12.20
2023-05-10T00:09:56.803Z,11.68
2023-05-10T00:12:25.635Z,9.80
2023-05-10T00:14:54.609Z,11.23
2023-05-10T00:17:23.691Z,12.30
2023-05-10T00:19:52.740Z,12.90
2023-05-10T00:22:23.060Z,10.38
2023-05-10T00:24:51.849Z,13.90
2023-05-10T00:27:21.944Z,10.98
2023-05-10T00:29:50.670Z,9.95
2023-05-10T00:32:19.807Z,12.63
2023-05-10T00:34:48.659Z,13.05
2023-05-10T00:37:17.510Z,12.45
2023-05-10T00:39:47.701Z,13.27
2023-05-10T00:42:16.528Z,11.90
2023-05-10T00:44:45.548Z,12.88
2023-05-10T00:47:14.712Z,12.18
2023-05-10T00:49:43.832Z,12.85
2023-05-10T00:52:13.578Z,14.70
2023-05-10T00:54:42.717Z,10.55
2023-05-10T00:57:13.195Z,13.10
2023-05-10T00:59:42.233Z,15.10
2023-05-10T01:02:11.145Z,11.48
2023-05-10T01:04:40.746Z,15.05
2023-05-10T01:07:09.994Z,11.98
2023-05-10T01:09:39.732Z,12.63
2023-05-10T01:12:09.079Z,16.65
2023-05-10T01:14:39.772Z,17.40
2023-05-10T01:17:12.005Z,15.80
2023-05-10T01:19:41.368Z,13.75
2023-05-10T01:22:28.176Z,15.40
2023-05-10T01:25:22.025Z,13.90
2023-05-10T01:28:07.783Z,14.23
2023-05-10T01:31:10.757Z,17.02
2023-05-10T01:33:46.590Z,11.63
2023-05-10T01:36:27.258Z,15.23
2023-05-10T01:39:03.375Z,13.23
2023-05-10T01:41:42.459Z,14.90
2023-05-10T01:44:20.101Z,15.48
2023-05-10T01:46:54.845Z,14.93
2023-05-10T01:49:28.378Z,14.57
2023-05-10T01:52:02.626Z,16.60
2023-05-10T01:54:32.378Z,14.95
2023-05-10T01:57:05.414Z,15.52
2023-05-10T01:59:40.285Z,15.73
2023-05-10T02:02:12.794Z,15.63
2023-05-10T02:04:44.389Z,18.63
2023-05-10T02:07:14.503Z,14.05
2023-05-10T02:09:48.524Z,15.70
2023-05-10T02:12:18.902Z,14.68
2023-05-10T02:14:49.648Z,15.43
2023-05-10T02:17:19.166Z,16.98
2023-05-10T02:19:54.926Z,15.43
2023-05-10T02:22:25.080Z,14.25
2023-05-10T02:24:57.238Z,15.38
2023-05-10T02:27:27.963Z,15.10
2023-05-10T02:29:57.327Z,15.60
2023-05-10T02:32:28.377Z,14.15
2023-05-10T02:34:59.490Z,14.15
2023-05-10T02:37:29.276Z,15.45
2023-05-10T02:39:59.274Z,17.33
2023-05-10T02:42:29.840Z,14.73
2023-05-10T02:45:04.134Z,13.38
2023-05-10T02:47:33.179Z,14.75
2023-05-10T02:50:03.466Z,15.88
2023-05-10T02:52:41.726Z,14.88
2023-05-10T02:55:13.750Z,13.07
2023-05-10T02:57:48.525Z,14.15
2023-05-10T03:00:17.838Z,14.45
2023-05-10T03:02:47.225Z,12.18
2023-05-10T03:05:18.069Z,13.02
2023-05-10T03:07:47.484Z,13.13
2023-05-10T03:10:16.792Z,17.80
2023-05-10T03:13:13.194Z,14.40
2023-05-10T03:15:52.987Z,15.57
2023-05-10T03:18:25.785Z,13.13
2023-05-10T03:21:04.100Z,14.18
2023-05-10T03:23:39.590Z,11.77
2023-05-10T03:26:09.536Z,12.43
2023-05-10T03:28:39.674Z,15.52
2023-05-10T03:31:09.598Z,16.08
2023-05-10T03:33:48.845Z,15.90
2023-05-10T03:36:21.780Z,15.45
2023-05-10T03:38:51.051Z,14.63
2023-05-10T03:41:21.584Z,15.85
2023-05-10T03:43:50.645Z,19.25
2023-05-10T03:46:19.819Z,17.70
2023-05-10T03:48:48.832Z,20.13
2023-05-10T03:51:17.731Z,16.17
2023-05-10T03:53:48.176Z,22.95
2023-05-10T03:56:16.820Z,20.15
2023-05-10T03:58:45.886Z,22.67
2023-05-10T04:01:14.812Z,17.92
2023-05-10T04:03:43.813Z,24.05
2023-05-10T04:06:14.610Z,22.00
2023-05-10T04:08:45.484Z,21.85
2023-05-10T04:11:15.605Z,19.88
2023-05-10T04:13:44.819Z,21.33
2023-05-10T04:16:13.751Z,23.58
2023-05-10T04:18:42.505Z,21.75
2023-05-10T04:21:14.563Z,20.70
2023-05-10T04:23:43.292Z,23.92
2023-05-10T04:26:12.360Z,25.35
2023-05-10T04:28:42.555Z,24.35
2023-05-10T04:31:12.470Z,20.77
2023-05-10T04:33:41.409Z,22.77
2023-05-10T04:36:10.818Z,26.02
2023-05-10T04:38:39.792Z,23.80
2023-05-10T04:41:09.625Z,23.02
2023-05-10T04:43:39.493Z,28.08
2023-05-10T04:46:09.748Z,24.80
2023-05-10T04:48:38.650Z,28.27
2023-05-10T04:51:07.621Z,21.27
2023-05-10T04:53:36.867Z,23.70
2023-05-10T04:56:06.202Z,25.27
2023-05-10T04:58:35.565Z,24.50
2023-05-10T05:01:11.559Z,28.13
2023-05-10T05:03:40.523Z,28.27
2023-05-10T05:06:09.742Z,27.05
2023-05-10T05:08:38.554Z,23.65
2023-05-10T05:11:07.594Z,25.77
2023-05-10T05:13:36.340Z,27.92
2023-05-10T05:16:05.815Z,27.00
2023-05-10T05:18:36.070Z,23.98
2023-05-10T05:21:05.101Z,25.30
2023-05-10T05:23:33.982Z,24.95
2023-05-10T05:26:02.791Z,24.67
2023-05-10T05:28:33.988Z,24.15
2023-05-10T05:31:02.908Z,25.15
2023-05-10T05:33:31.711Z,25.13
2023-05-10T05:36:03.142Z,29.90
2023-05-10T05:38:32.104Z,19.90
2023-05-10T05:41:00.881Z,15.05
2023-05-10T05:43:29.830Z,13.90
2023-05-10T05:45:59.177Z,13.55
2023-05-10T05:48:28.261Z,15.52
2023-05-10T05:50:58.183Z,12.95
2023-05-10T05:53:28.361Z,18.48
2023-05-10T05:55:58.956Z,15.32
2023-05-10T05:58:29.132Z,15.20
2023-05-10T06:00:58.406Z,14.07
2023-05-10T06:03:27.440Z,10.35
2023-05-10T06:05:56.475Z,15.75
2023-05-10T06:08:25.328Z,13.77
2023-05-10T06:10:55.533Z,23.83
2023-05-10T06:13:24.267Z,15.27
2023-05-10T06:15:53.424Z,17.73
2023-05-10T06:18:22.440Z,14.82
2023-05-10T06:20:52.791Z,16.00
2023-05-10T06:23:22.088Z,16.73
2023-05-10T06:25:50.952Z,14.15
2023-05-10T06:28:21.288Z,17.45
2023-05-10T06:30:50.151Z,13.02
2023-05-10T06:33:19.067Z,14.65
2023-05-10T06:35:48.113Z,13.50
2023-05-10T06:38:17.139Z,11.50
2023-05-10T06:40:46.472Z,7.05
2023-05-10T06:43:15.310Z,6.97
2023-05-10T06:45:45.755Z,7.03
2023-05-10T06:48:14.736Z,6.13
2023-05-10T06:50:43.886Z,8.32
2023-05-10T06:53:12.912Z,8.18
2023-05-10T06:55:42.120Z,8.57
2023-05-10T06:58:10.929Z,7.90
2023-05-10T07:00:41.522Z,9.35
2023-05-10T07:03:12.171Z,6.90
2023-05-10T07:05:41.252Z,6.72
2023-05-10T07:08:10.319Z,5.43
2023-05-10T07:10:39.245Z,8.20
2023-05-10T07:13:08.139Z,6.50
2023-05-10T07:15:37.356Z,9.15
2023-05-10T07:18:07.545Z,11.15
2023-05-10T07:20:38.143Z,12.35
2023-05-10T07:23:07.209Z,14.60
2023-05-10T07:25:36.074Z,12.95
2023-05-10T07:28:05.330Z,10.18
2023-05-10T07:30:34.225Z,10.95
2023-05-10T07:33:03.192Z,10.85
2023-05-10T07:35:32.209Z,10.98
2023-05-10T07:38:02.842Z,9.43
2023-05-10T07:40:32.269Z,15.70
2023-05-10T07:43:02.833Z,14.52
2023-05-10T07:45:32.036Z,12.68
2023-05-10T07:48:01.314Z,15.23
2023-05-10T07:50:30.672Z,14.75
2023-05-10T07:53:01.452Z,12.48
2023-05-10T07:55:30.644Z,11.32
2023-05-10T07:58:02.004Z,15.57
2023-05-10T08:00:30.814Z,16.40
2023-05-10T08:03:00.006Z,9.82
2023-05-10T08:05:29.037Z,9.48
2023-05-10T08:07:58.289Z,10.50
2023-05-10T08:10:28.678Z,12.05
2023-05-10T08:12:59.421Z,11.88
2023-05-10T08:15:28.502Z,13.15
2023-05-10T08:17:57.578Z,8.55
2023-05-10T08:20:26.705Z,12.10
2023-05-10T08:22:56.311Z,12.20
2023-05-10T08:25:25.216Z,10.50
2023-05-10T08:27:55.456Z,10.95
2023-05-10T08:30:24.636Z,11.13
2023-05-10T08:32:53.647Z,7.22
2023-05-10T08:35:22.699Z,15.07
2023-05-10T08:37:51.588Z,8.30
2023-05-10T08:40:22.364Z,12.02
2023-05-10T08:42:57.650Z,8.10
2023-05-10T08:45:29.491Z,9.40
2023-05-10T08:47:58.610Z,6.97
2023-05-10T08:50:28.117Z,6.38
2023-05-10T08:52:59.851Z,8.52
2023-05-10T08:55:29.106Z,8.57
2023-05-10T08:57:59.398Z,8.27
2023-05-10T09:00:28.462Z,7.93
2023-05-10T09:02:58.184Z,5.28
2023-05-10T09:05:27.486Z,9.30
2023-05-10T09:07:56.537Z,6.50
2023-05-10T09:10:28.387Z,6.60
2023-05-10T09:12:59.744Z,9.35
2023-05-10T09:15:28.591Z,7.47
2023-05-10T09:17:59.178Z,9.65
2023-05-10T09:20:28.428Z,9.38
2023-05-10T09:22:57.200Z,8.07
2023-05-10T09:25:26.040Z,11.35
2023-05-10T09:27:55.227Z,8.48
2023-05-10T09:30:30.158Z,7.53
2023-05-10T09:33:00.523Z,6.63
2023-05-10T09:35:31.883Z,9.27
2023-05-10T09:38:07.706Z,6.00
2023-05-10T09:40:36.578Z,5.93
2023-05-10T09:43:08.166Z,7.22
2023-05-10T09:45:39.281Z,5.28
2023-05-10T09:48:08.900Z,6.53
2023-05-10T09:50:37.877Z,6.63
2023-05-10T09:53:06.795Z,6.45
2023-05-10T09:55:45.291Z,6.88
2023-05-10T10:00:48.924Z,7.40
2023-05-10T10:03:18.988Z,4.95
2023-05-10T10:05:49.255Z,5.82
2023-05-10T10:08:18.755Z,5.53
2023-05-10T10:10:48.681Z,4.63
2023-05-10T10:13:18.241Z,4.47
2023-05-10T10:15:52.061Z,5.22
2023-05-10T10:18:24.950Z,6.97
2023-05-10T10:20:54.902Z,6.43
2023-05-10T10:23:24.512Z,4.90
2023-05-10T10:25:55.248Z,5.18
2023-05-10T10:28:29.962Z,6.25
2023-05-10T10:31:14.757Z,5.15
2023-05-10T10:33:58.856Z,6.07
2023-05-10T10:36:29.169Z,4.75
2023-05-10T10:39:01.642Z,5.95
2023-05-10T10:44:25.820Z,22.77
2023-05-10T10:47:09.591Z,4.68
2023-05-10T10:49:50.433Z,4.25
2023-05-10T10:52:27.957Z,6.88
2023-05-10T10:55:02.249Z,6.47
2023-05-10T10:57:34.646Z,4.80
2023-05-10T11:02:54.317Z,3.85
2023-05-10T11:05:28.345Z,5.63
2023-05-10T11:07:58.574Z,6.40
2023-05-10T11:10:29.796Z,5.80
2023-05-10T11:13:03.085Z,5.40
2023-05-10T11:15:32.706Z,4.90
2023-05-10T11:18:19.270Z,5.60
2023-05-10T11:20:52.892Z,5.53
2023-05-10T11:23:22.366Z,4.88
2023-05-10T11:25:52.034Z,6.80
2023-05-10T11:28:21.408Z,6.18
2023-05-10T11:30:50.474Z,5.70
2023-05-10T11:33:22.105Z,4.93
2023-05-10T11:35:51.000Z,4.97
2023-05-10T11:38:20.184Z,6.25
2023-05-10T11:40:49.181Z,6.65
2023-05-10T11:43:18.312Z,8.25
2023-05-10T11:45:47.880Z,6.95
2023-05-10T11:48:17.965Z,7.10
2023-05-10T11:50:48.898Z,5.30
2023-05-10T11:53:17.816Z,7.65
2023-05-10T11:55:46.738Z,4.88
2023-05-10T11:58:15.776Z,4.68
2023-05-10T12:00:44.832Z,4.22
2023-05-10T12:03:13.993Z,7.50
2023-05-10T12:05:43.400Z,7.13
2023-05-10T12:08:18.409Z,4.75
2023-05-10T12:10:47.335Z,4.43
2023-05-10T12:13:16.952Z,6.22
2023-05-10T12:15:46.422Z,4.53
2023-05-10T12:18:16.353Z,7.05
2023-05-10T12:20:45.150Z,6.22
2023-05-10T12:23:15.111Z,7.72
2023-05-10T12:25:46.038Z,6.45
2023-05-10T12:28:15.006Z,6.68
2023-05-10T12:30:43.849Z,5.88
2023-05-10T12:33:16.096Z,5.60
2023-05-10T12:38:31.887Z,6.63
2023-05-10T12:41:03.461Z,5.93
2023-05-10T12:43:32.728Z,6.63
2023-05-10T12:46:07.546Z,6.50
2023-05-10T12:48:37.265Z,8.00
2023-05-10T12:51:10.254Z,6.55
2023-05-10T12:53:42.769Z,6.80
2023-05-10T12:56:14.802Z,6.30
2023-05-10T12:58:49.176Z,7.75
2023-05-10T13:01:18.643Z,8.15
2023-05-10T13:03:48.166Z,8.32
2023-05-10T13:06:17.047Z,7.38
2023-05-10T13:08:46.020Z,8.15
2023-05-10T13:11:18.066Z,6.25
2023-05-10T13:13:47.166Z,8.95
2023-05-10T13:16:16.164Z,6.20
2023-05-10T13:18:45.256Z,14.38
2023-05-10T13:21:14.253Z,6.68
2023-05-10T13:23:43.286Z,5.18
2023-05-10T13:26:12.325Z,6.22
2023-05-10T13:28:42.648Z,4.22
2023-05-10T13:31:11.750Z,6.32
2023-05-10T13:33:40.769Z,6.15
2023-05-10T13:36:10.008Z,8.35
2023-05-10T13:38:38.975Z,6.13
2023-05-10T13:41:07.966Z,6.30
2023-05-10T13:43:37.198Z,6.35
2023-05-10T13:46:07.698Z,6.18
2023-05-10T13:48:39.122Z,7.72
2023-05-10T13:51:08.590Z,7.63
2023-05-10T13:53:37.491Z,7.28
2023-05-10T13:56:06.738Z,6.97
2023-05-10T13:58:36.835Z,9.20
2023-05-10T14:01:07.828Z,7.28
2023-05-10T14:03:37.051Z,6.35
2023-05-10T14:06:08.404Z,6.55
2023-05-10T14:08:38.022Z,7.07
2023-05-10T14:11:07.611Z,9.00
2023-05-10T14:13:36.902Z,9.23
2023-05-10T14:16:07.777Z,8.55
2023-05-10T14:18:36.711Z,8.25
2023-05-10T14:21:06.616Z,10.15
2023-05-10T14:23:35.749Z,8.02
2023-05-10T14:26:05.059Z,11.88
2023-05-10T14:28:33.911Z,11.02
2023-05-10T14:31:03.448Z,11.68
2023-05-10T14:33:33.661Z,11.10
2023-05-10T14:36:04.356Z,12.02
2023-05-10T14:38:33.099Z,14.95
2023-05-10T14:41:02.330Z,13.25
2023-05-10T14:43:31.522Z,10.27
2023-05-10T14:46:00.622Z,16.35
2023-05-10T14:48:29.631Z,14.23
2023-05-10T14:50:59.876Z,13.13
2023-05-10T14:53:28.733Z,13.63
2023-05-10T14:55:57.512Z,13.63
2023-05-10T14:58:26.441Z,14.05
2023-05-10T15:00:55.459Z,16.00
2023-05-10T15:03:24.580Z,14.00
2023-05-10T15:05:54.184Z,13.85
2023-05-10T15:08:24.731Z,12.85
2023-05-10T15:10:56.507Z,10.80
2023-05-10T15:13:25.415Z,12.57
2023-05-10T15:15:55.190Z,11.88
2023-05-10T15:18:26.976Z,9.52
2023-05-10T15:20:56.374Z,10.20
2023-05-10T15:23:26.947Z,9.40
2023-05-10T15:25:56.881Z,7.38
2023-05-10T15:28:25.953Z,6.43
2023-05-10T15:30:55.103Z,10.27
2023-05-10T15:33:24.302Z,5.13
2023-05-10T15:35:54.664Z,7.05
2023-05-10T15:38:23.612Z,5.38
2023-05-10T15:40:57.280Z,5.45
2023-05-10T15:43:26.329Z,6.38
2023-05-10T15:45:55.211Z,5.03
2023-05-10T15:48:24.266Z,7.35
2023-05-10T15:50:53.739Z,6.53
2023-05-10T15:53:22.765Z,6.95
2023-05-10T15:55:53.047Z,5.95
2023-05-10T15:58:21.998Z,9.20
2023-05-10T16:00:50.752Z,10.10
2023-05-10T16:03:19.691Z,9.45
2023-05-10T16:05:48.619Z,10.38
2023-05-10T16:08:17.414Z,6.38
2023-05-10T16:10:46.338Z,7.20
2023-05-10T16:13:16.960Z,9.35
2023-05-10T16:15:45.971Z,13.05
2023-05-10T16:18:14.819Z,9.07
2023-05-10T16:20:43.706Z,8.45
2023-05-10T16:23:12.945Z,15.13
2023-05-10T16:25:42.289Z,10.88
2023-05-10T16:28:11.220Z,12.38
2023-05-10T16:30:41.836Z,13.70
2023-05-10T16:33:10.857Z,9.98
2023-05-10T16:35:39.915Z,12.82
2023-05-10T16:38:08.986Z,13.77
2023-05-10T16:40:37.818Z,13.43
2023-05-10T16:43:06.709Z,10.48
2023-05-10T16:45:35.983Z,11.65
2023-05-10T16:48:07.117Z,13.52
2023-05-10T16:50:36.059Z,11.95
2023-05-10T16:53:04.947Z,14.15
2023-05-10T16:55:33.665Z,13.35
2023-05-10T16:58:03.246Z,12.65
2023-05-10T17:00:32.207Z,14.00
2023-05-10T17:03:01.341Z,12.55
2023-05-10T17:05:31.792Z,13.20
2023-05-10T17:08:01.016Z,14.25
2023-05-10T17:10:30.016Z,14.63
2023-05-10T17:12:59.010Z,12.20
2023-05-10T17:15:28.057Z,11.32
2023-05-10T17:17:57.747Z,13.93
2023-05-10T17:20:26.621Z,16.25
2023-05-10T17:22:56.925Z,14.30
2023-05-10T17:25:25.988Z,18.27
2023-05-10T17:27:54.899Z,13.90
2023-05-10T17:30:26.449Z,12.55
2023-05-10T17:32:55.558Z,19.17
2023-05-10T17:35:24.477Z,19.40
2023-05-10T17:37:53.236Z,16.83
2023-05-10T17:40:23.523Z,15.30
2023-05-10T17:42:52.845Z,15.63
2023-05-10T17:45:21.953Z,13.65
2023-05-10T17:47:52.198Z,23.27
2023-05-10T17:50:21.298Z,17.55
2023-05-10T17:52:51.466Z,13.85
2023-05-10T17:55:20.640Z,19.50
2023-05-10T17:57:52.254Z,17.38
2023-05-10T18:00:21.479Z,13.20
2023-05-10T18:02:50.859Z,15.20
2023-05-10T18:05:20.390Z,13.27
2023-05-10T18:07:51.409Z,16.67
2023-05-10T18:10:20.437Z,15.25
2023-05-10T18:12:52.420Z,18.13
2023-05-10T18:15:21.449Z,19.08
2023-05-10T18:17:51.152Z,19.67
2023-05-10T18:20:20.300Z,16.45
2023-05-10T18:22:49.270Z,16.15
2023-05-10T18:25:18.410Z,18.75
2023-05-10T18:27:48.341Z,21.98
2023-05-10T18:30:19.071Z,22.70
2023-05-10T18:32:48.156Z,18.40
2023-05-10T18:35:17.215Z,22.73
2023-05-10T18:37:46.224Z,25.77
2023-05-10T18:40:15.146Z,25.23
2023-05-10T18:42:46.679Z,27.45
2023-05-10T18:45:16.204Z,26.65
2023-05-10T18:47:46.888Z,34.35
2023-05-10T18:50:17.170Z,28.85
2023-05-10T18:52:46.521Z,30.80
2023-05-10T18:55:15.992Z,35.65
2023-05-10T18:57:45.438Z,39.45
2023-05-10T19:00:15.143Z,38.65
2023-05-10T19:02:44.175Z,37.08
2023-05-10T19:05:15.980Z,33.75
2023-05-10T19:07:45.487Z,36.92
2023-05-10T19:10:14.848Z,34.20
2023-05-10T19:12:43.751Z,33.88
2023-05-10T19:15:13.053Z,33.42
2023-05-10T19:17:42.191Z,32.25
2023-05-10T19:20:12.195Z,32.13
2023-05-10T19:22:54.848Z,32.92
2023-05-10T19:25:29.662Z,35.17
2023-05-10T19:27:59.117Z,28.05
2023-05-10T19:30:28.867Z,30.95
2023-05-10T19:32:58.061Z,27.33
2023-05-10T19:35:27.100Z,29.88
2023-05-10T19:37:57.560Z,27.60
2023-05-10T19:40:26.652Z,26.63
2023-05-10T19:42:57.208Z,25.58
2023-05-10T19:45:27.037Z,28.40
2023-05-10T19:47:56.918Z,22.48
2023-05-10T19:50:26.173Z,33.78
2023-05-10T19:52:58.557Z,25.38
2023-05-10T19:55:29.181Z,28.60
2023-05-10T19:58:00.511Z,27.52
2023-05-10T20:00:29.955Z,26.02
2023-05-10T20:02:59.959Z,19.67
2023-05-10T20:05:29.009Z,27.33
2023-05-10T20:08:00.133Z,21.10
2023-05-10T20:10:29.054Z,21.35
2023-05-10T20:12:59.121Z,20.67
2023-05-10T20:15:30.126Z,24.73
2023-05-10T20:17:59.192Z,22.75
2023-05-10T20:20:28.272Z,18.63
2023-05-10T20:22:57.182Z,23.60
2023-05-10T20:25:27.725Z,18.85
2023-05-10T20:27:56.643Z,21.42
2023-05-10T20:30:25.705Z,21.70
2023-05-10T20:32:55.344Z,24.05
2023-05-10T20:35:24.250Z,17.98
2023-05-10T20:37:53.133Z,22.73
2023-05-10T20:40:22.283Z,21.60
2023-05-10T20:42:54.179Z,20.83
2023-05-10T20:45:23.074Z,24.55
2023-05-10T20:47:52.448Z,25.05
2023-05-10T20:50:21.344Z,19.27
2023-05-10T20:52:52.301Z,23.27
2023-05-10T20:55:24.686Z,21.60
2023-05-10T20:57:55.756Z,23.52
2023-05-10T21:00:24.730Z,25.25
2023-05-10T21:02:54.590Z,24.38
2023-05-10T21:05:23.936Z,21.88
2023-05-10T21:07:54.237Z,23.23
2023-05-10T21:10:23.336Z,21.40
2023-05-10T21:12:52.150Z,20.70
2023-05-10T21:15:24.529Z,22.77
2023-05-10T21:20:23.553Z,17.17
2023-05-10T21:22:54.049Z,23.52
2023-05-10T21:25:23.803Z,20.15
2023-05-10T21:27:52.951Z,22.05
2023-05-10T21:30:23.492Z,21.23
2023-05-10T21:32:59.704Z,27.80
2023-05-10T21:35:28.929Z,26.73
2023-05-10T21:37:57.879Z,23.55
2023-05-10T21:40:26.737Z,22.88
2023-05-10T21:42:55.665Z,21.23
2023-05-10T21:45:26.226Z,26.35
2023-05-10T21:47:55.326Z,24.15
2023-05-10T21:50:24.130Z,23.13
2023-05-10T21:52:53.056Z,23.92
2023-05-10T21:55:24.380Z,34.22
2023-05-10T21:57:53.225Z,32.03
2023-05-10T22:00:22.219Z,29.60
2023-05-10T22:02:54.007Z,31.77
2023-05-10T22:05:23.026Z,32.70
2023-05-10T22:07:51.933Z,30.50
2023-05-10T22:10:20.960Z,33.75
2023-05-10T22:12:51.804Z,30.80
2023-05-10T22:15:20.760Z,32.70
2023-05-10T22:17:49.889Z,31.00
2023-05-10T22:20:21.078Z,27.58
2023-05-10T22:22:50.333Z,32.40
2023-05-10T22:25:19.396Z,26.85
2023-05-10T22:27:48.478Z,32.30
2023-05-10T22:30:17.643Z,26.45
2023-05-10T22:32:47.310Z,29.73
2023-05-10T22:35:16.297Z,27.52
2023-05-10T22:37:46.557Z,30.77
2023-05-10T22:40:15.386Z,25.45
2023-05-10T22:42:44.639Z,23.20
2023-05-10T22:45:13.675Z,27.75
2023-05-10T22:47:42.876Z,23.38
2023-05-10T22:50:12.960Z,26.95
2023-05-10T22:52:41.721Z,25.13
2023-05-10T22:55:12.350Z,21.25
2023-05-10T22:57:41.358Z,23.48
2023-05-10T23:00:11.271Z,22.23
2023-05-10T23:02:40.515Z,20.90
2023-05-10T23:05:10.619Z,21.15
2023-05-10T23:07:39.472Z,21.13
2023-05-10T23:10:08.803Z,20.38
2023-05-10T23:12:38.849Z,22.27
2023-05-10T23:15:08.589Z,24.30
2023-05-10T23:17:37.234Z,24.65
2023-05-10T23:20:07.254Z,23.38
2023-05-10T23:22:36.154Z,23.90
2023-05-10T23:25:05.371Z,24.40
2023-05-10T23:27:34.379Z,26.55
2023-05-10T23:30:05.023Z,22.08
2023-05-10T23:32:33.966Z,24.40
2023-05-10T23:35:02.713Z,18.83
2023-05-10T23:37:31.687Z,18.55
2023-05-10T23:40:00.725Z,16.20
2023-05-10T23:42:33.819Z,21.42
2023-05-10T23:45:04.674Z,16.25
2023-05-10T23:47:33.572Z,15.75
2023-05-10T23:50:02.807Z,17.38
2023-05-10T23:52:31.671Z,16.27
2023-05-10T23:55:00.640Z,17.92
2023-05-10T23:57:29.510Z,19.00
2023-05-10T23:59:58.397Z,18.58
